createdAt,value
2023-04-03T00:00:04.497Z,1011.76
2023-04-03T00:05:04.438Z,1011.78
2023-04-03T00:10:04.272Z,1011.81
2023-04-03T00:15:03.231Z,1011.85
2023-04-03T00:20:04.526Z,1011.89
2023-04-03T00:25:03.295Z,1011.91
2023-04-03T00:30:04.239Z,1011.9
2023-04-03T00:35:03.352Z,1011.83
2023-04-03T00:40:04.607Z,1011.75
2023-04-03T00:45:03.406Z,1011.79
2023-04-03T00:50:05.555Z,1011.84
2023-04-03T00:55:03.233Z,1011.89
2023-04-03T01:00:04.517Z,1011.87
2023-04-03T01:05:04.360Z,1011.83
2023-04-03T01:10:04.572Z,1011.77
2023-04-03T01:15:03.312Z,1011.75
2023-04-03T01:20:04.921Z,1011.69
2023-04-03T01:25:03.272Z,1011.72
2023-04-03T01:30:04.345Z,1011.68
2023-04-03T01:35:03.331Z,1011.63
2023-04-03T01:40:04.344Z,1011.6
2023-04-03T01:45:03.315Z,1011.6
2023-04-03T01:50:04.257Z,1011.61
2023-04-03T01:55:03.257Z,1011.64
2023-04-03T02:00:04.375Z,1011.68
2023-04-03T02:05:03.531Z,1011.72
2023-04-03T02:10:04.382Z,1011.69
2023-04-03T02:15:03.385Z,1011.7
2023-04-03T02:20:04.475Z,1011.69
2023-04-03T02:25:03.255Z,1011.65
2023-04-03T02:30:04.333Z,1011.59
2023-04-03T02:35:03.465Z,1011.53
2023-04-03T02:40:04.534Z,1011.56
2023-04-03T02:45:03.356Z,1011.55
2023-04-03T02:50:04.404Z,1011.55
2023-04-03T02:55:03.451Z,1011.6
2023-04-03T03:00:04.419Z,1011.62
2023-04-03T03:05:03.315Z,1011.63
2023-04-03T03:10:04.341Z,1011.68
2023-04-03T03:15:03.315Z,1011.67
2023-04-03T03:20:09.579Z,1011.69
2023-04-03T03:25:03.287Z,1011.57
2023-04-03T03:30:04.359Z,1011.5
2023-04-03T03:35:03.375Z,1011.54
2023-04-03T03:40:04.378Z,1011.59
2023-04-03T03:45:03.399Z,1011.65
2023-04-03T03:50:04.402Z,1011.66
2023-04-03T03:55:03.280Z,1011.67
2023-04-03T04:00:04.329Z,1011.64
2023-04-03T04:05:03.275Z,1011.59
2023-04-03T04:10:05.810Z,1011.62
2023-04-03T04:15:03.361Z,1011.62
2023-04-03T04:20:04.260Z,1011.61
2023-04-03T04:25:03.255Z,1011.62
2023-04-03T04:30:04.250Z,1011.62
2023-04-03T04:35:03.351Z,1011.63
2023-04-03T04:40:04.338Z,1011.62
2023-04-03T04:45:03.218Z,1011.65
2023-04-03T04:50:04.368Z,1011.57
2023-04-03T04:55:03.227Z,1011.57
2023-04-03T05:00:04.286Z,1011.54
2023-04-03T05:05:05.101Z,1011.54
2023-04-03T05:10:04.291Z,1011.52
2023-04-03T05:15:03.448Z,1011.45
2023-04-03T05:20:04.186Z,1011.37
2023-04-03T05:25:03.233Z,1011.4
2023-04-03T05:30:04.254Z,1011.43
2023-04-03T05:35:03.306Z,1011.43
2023-04-03T05:40:04.306Z,1011.41
2023-04-03T05:45:03.347Z,1011.42
2023-04-03T05:50:04.502Z,1011.43
2023-04-03T05:55:03.237Z,1011.4
2023-04-03T06:00:04.212Z,1011.4
2023-04-03T06:05:03.362Z,1011.36
2023-04-03T06:10:04.317Z,1011.32
2023-04-03T06:15:03.388Z,1011.3
2023-04-03T06:20:04.395Z,1011.31
2023-04-03T06:25:03.208Z,1011.33
2023-04-03T06:30:04.323Z,1011.36
2023-04-03T06:35:03.312Z,1011.28
2023-04-03T06:40:04.373Z,1011.3
2023-04-03T06:45:03.402Z,1011.26
2023-04-03T06:50:04.474Z,1011.25
2023-04-03T06:55:03.176Z,1011.25
2023-04-03T07:00:04.244Z,1011.21
2023-04-03T07:05:03.292Z,1011.22
2023-04-03T07:10:04.412Z,1011.22
2023-04-03T07:15:03.244Z,1011.23
2023-04-03T07:20:04.272Z,1011.23
2023-04-03T07:25:03.456Z,1011.26
2023-04-03T07:30:04.311Z,1011.28
2023-04-03T07:35:03.971Z,1011.27
2023-04-03T07:40:04.310Z,1011.25
2023-04-03T07:45:03.370Z,1011.27
2023-04-03T07:50:04.350Z,1011.3
2023-04-03T07:55:03.381Z,1011.4
2023-04-03T08:00:04.245Z,1011.47
2023-04-03T08:05:03.253Z,1011.55
2023-04-03T08:10:04.299Z,1011.6
2023-04-03T08:15:03.407Z,1011.73
2023-04-03T08:20:04.373Z,1011.8
2023-04-03T08:25:03.338Z,1011.88
2023-04-03T08:30:04.278Z,1011.88
2023-04-03T08:35:03.401Z,1011.88
2023-04-03T08:40:04.304Z,1011.91
2023-04-03T08:45:03.512Z,1011.96
2023-04-03T08:50:04.242Z,1012.01
2023-04-03T08:55:03.238Z,1012.06
2023-04-03T09:00:04.273Z,1012.11
2023-04-03T09:05:03.285Z,1012.18
2023-04-03T09:10:04.352Z,1012.27
2023-04-03T09:15:03.315Z,1012.36
2023-04-03T09:20:04.367Z,1012.46
2023-04-03T09:25:03.349Z,1012.53
2023-04-03T09:30:04.275Z,1012.62
2023-04-03T09:35:17.163Z,1012.64
2023-04-03T09:40:04.371Z,1012.69
2023-04-03T09:45:03.348Z,1012.76
2023-04-03T09:50:04.114Z,1012.83
2023-04-03T09:55:03.335Z,1012.87
2023-04-03T10:00:04.345Z,1012.97
2023-04-03T10:10:04.321Z,1013.14
2023-04-03T10:15:03.362Z,1013.22
2023-04-03T10:20:03.956Z,1013.24
2023-04-03T10:25:04.233Z,1013.29
2023-04-03T10:30:04.395Z,1013.4
2023-04-03T10:35:05.281Z,1013.44
2023-04-03T10:40:04.328Z,1013.51
2023-04-03T10:45:03.387Z,1013.53
2023-04-03T10:50:04.286Z,1013.54
2023-04-03T10:55:03.277Z,1013.59
2023-04-03T11:00:04.149Z,1013.65
2023-04-03T11:05:03.460Z,1013.73
2023-04-03T11:10:04.365Z,1013.79
2023-04-03T11:15:03.367Z,1013.84
2023-04-03T11:20:04.427Z,1013.94
2023-04-03T11:25:03.234Z,1014.0
2023-04-03T11:30:04.347Z,1014.05
2023-04-03T11:35:03.272Z,1014.14
2023-04-03T11:40:04.327Z,1014.18
2023-04-03T11:45:03.319Z,1014.25
2023-04-03T11:50:04.346Z,1014.33
2023-04-03T11:55:03.181Z,1014.38
2023-04-03T12:00:04.290Z,1014.41
2023-04-03T12:05:03.435Z,1014.53
2023-04-03T12:10:04.332Z,1014.58
2023-04-03T12:15:03.948Z,1014.62
2023-04-03T12:20:04.494Z,1014.64
2023-04-03T12:25:03.244Z,1014.72
2023-04-03T12:30:04.323Z,1014.77
2023-04-03T12:35:03.257Z,1014.77
2023-04-03T12:40:04.297Z,1014.75
2023-04-03T12:45:03.388Z,1014.78
2023-04-03T12:50:04.442Z,1014.84
2023-04-03T12:55:03.192Z,1014.88
2023-04-03T13:00:04.293Z,1014.94
2023-04-03T13:05:03.258Z,1014.92
2023-04-03T13:10:04.328Z,1014.85
2023-04-03T13:15:03.408Z,1014.83
2023-04-03T13:20:04.360Z,1014.78
2023-04-03T13:25:04.116Z,1014.75
2023-04-03T13:30:04.533Z,1014.74
2023-04-03T13:35:11.916Z,1014.76
2023-04-03T13:40:04.394Z,1014.69
2023-04-03T13:45:03.432Z,1014.7
2023-04-03T13:50:04.457Z,1014.71
2023-04-03T13:55:05.759Z,1014.67
2023-04-03T14:00:04.492Z,1014.66
2023-04-03T14:05:03.215Z,1014.54
2023-04-03T14:10:04.338Z,1014.56
2023-04-03T14:15:03.449Z,1014.58
2023-04-03T14:20:04.451Z,1014.49
2023-04-03T14:25:03.197Z,1014.35
2023-04-03T14:30:04.313Z,1014.26
2023-04-03T14:35:03.335Z,1014.26
2023-04-03T14:40:04.362Z,1014.16
2023-04-03T14:45:03.351Z,1014.09
2023-04-03T14:50:05.696Z,1014.05
2023-04-03T14:55:03.510Z,1013.96
2023-04-03T15:00:04.422Z,1013.93
2023-04-03T15:05:03.307Z,1013.9
2023-04-03T15:10:04.593Z,1013.84
2023-04-03T15:15:03.927Z,1013.7
2023-04-03T15:20:04.381Z,1013.56
2023-04-03T15:25:03.401Z,1013.53
2023-04-03T15:30:04.359Z,1013.47
2023-04-03T15:35:03.330Z,1013.44
2023-04-03T15:40:04.384Z,1013.36
2023-04-03T15:45:03.452Z,1013.23
2023-04-03T15:50:04.551Z,1013.16
2023-04-03T15:55:03.256Z,1013.08
2023-04-03T16:00:04.322Z,1013.02
2023-04-03T16:05:08.413Z,1012.99
2023-04-03T16:10:04.367Z,1012.92
2023-04-03T16:15:03.334Z,1012.87
2023-04-03T16:20:04.534Z,1012.8
2023-04-03T16:25:03.209Z,1012.77
2023-04-03T16:30:04.262Z,1012.72
2023-04-03T16:35:04.364Z,1012.66
2023-04-03T16:40:04.301Z,1012.56
2023-04-03T16:45:03.413Z,1012.48
2023-04-03T16:50:04.559Z,1012.36
2023-04-03T16:55:03.378Z,1012.28
2023-04-03T17:00:04.433Z,1012.2
2023-04-03T17:05:03.238Z,1012.08
2023-04-03T17:10:04.341Z,1012.0
2023-04-03T17:15:03.376Z,1012.02
2023-04-03T17:20:05.483Z,1011.97
2023-04-03T17:25:03.364Z,1011.91
2023-04-03T17:30:04.609Z,1011.81
2023-04-03T17:35:03.317Z,1011.67
2023-04-03T17:40:04.471Z,1011.66
2023-04-03T17:45:03.311Z,1011.61
2023-04-03T17:50:04.525Z,1011.55
2023-04-03T17:55:03.272Z,1011.46
2023-04-03T18:00:04.041Z,1011.44
2023-04-03T18:05:03.332Z,1011.33
2023-04-03T18:10:04.449Z,1011.33
2023-04-03T18:15:03.386Z,1011.24
2023-04-03T18:20:04.513Z,1011.15
2023-04-03T18:25:03.458Z,1011.11
2023-04-03T18:30:04.399Z,1011.06
2023-04-03T18:35:03.347Z,1011.0
2023-04-03T18:40:04.606Z,1010.98
2023-04-03T18:45:03.315Z,1010.98
2023-04-03T18:50:04.532Z,1010.88
2023-04-03T18:55:03.446Z,1010.87
2023-04-03T19:00:05.323Z,1010.83
2023-04-03T19:05:03.359Z,1010.8
2023-04-03T19:10:04.466Z,1010.81
2023-04-03T19:15:03.383Z,1010.79
2023-04-03T19:20:04.584Z,1010.71
2023-04-03T19:25:03.391Z,1010.62
2023-04-03T19:30:04.263Z,1010.66
2023-04-03T19:35:03.329Z,1010.63
2023-04-03T19:40:04.425Z,1010.65
2023-04-03T19:45:03.487Z,1010.68
2023-04-03T19:50:06.119Z,1010.72
2023-04-03T19:55:03.436Z,1010.66
2023-04-03T20:00:04.400Z,1010.69
2023-04-03T20:05:03.586Z,1010.64
2023-04-03T20:10:04.514Z,1010.63
2023-04-03T20:15:03.345Z,1010.56
2023-04-03T20:20:11.048Z,1010.55
2023-04-03T20:25:06.219Z,1010.56
2023-04-03T20:30:05.233Z,1010.56
2023-04-03T20:35:04.543Z,1010.53
2023-04-03T20:40:04.479Z,1010.57
2023-04-03T20:45:03.392Z,1010.55
2023-04-03T20:50:04.663Z,1010.55
2023-04-03T20:55:03.364Z,1010.6
2023-04-03T21:00:04.385Z,1010.65
2023-04-03T21:05:03.273Z,1010.58
2023-04-03T21:10:04.537Z,1010.58
2023-04-03T21:15:03.353Z,1010.58
2023-04-03T21:20:04.688Z,1010.51
2023-04-03T21:25:03.411Z,1010.55
2023-04-03T21:30:04.394Z,1010.57
2023-04-03T21:35:03.292Z,1010.51
2023-04-03T21:40:04.378Z,1010.53
2023-04-03T21:45:03.291Z,1010.64
2023-04-03T21:50:04.392Z,1010.68
2023-04-03T21:55:03.516Z,1010.74
2023-04-03T22:00:04.359Z,1010.73
2023-04-03T22:05:03.374Z,1010.7
2023-04-03T22:10:04.449Z,1010.74
2023-04-03T22:15:04.380Z,1010.74
2023-04-03T22:20:04.521Z,1010.83
2023-04-03T22:25:03.423Z,1010.81
2023-04-03T22:30:03.739Z,1010.84
2023-04-03T22:35:03.306Z,1010.77
2023-04-03T22:40:04.538Z,1010.77
2023-04-03T22:45:03.353Z,1010.81
2023-04-03T22:50:04.269Z,1010.85
2023-04-03T22:55:13.101Z,1010.87
2023-04-03T23:00:04.325Z,1010.8
2023-04-03T23:05:03.279Z,1010.74
2023-04-03T23:10:04.568Z,1010.8
2023-04-03T23:15:03.398Z,1010.8
2023-04-03T23:20:04.757Z,1010.72
2023-04-03T23:25:03.508Z,1010.69
2023-04-03T23:30:04.455Z,1010.85
2023-04-03T23:35:03.360Z,1010.86
2023-04-03T23:40:06.337Z,1010.91
2023-04-03T23:45:03.424Z,1010.97
2023-04-03T23:50:04.557Z,1011.19
2023-04-03T23:55:03.429Z,1011.33
